sensor_id;sensor_type;location;lat;lon;timestamp;temperature;humidity
19449;DHT22;9863;49.404;8.246;2022-10-16T00:02:47;15.70;99.90
19449;DHT22;9863;49.404;8.246;2022-10-16T00:05:43;15.70;99.90
19449;DHT22;9863;49.404;8.246;2022-10-16T00:08:32;15.60;99.90
19449;DHT22;9863;49.404;8.246;2022-10-16T00:11:29;15.60;99.90
19449;DHT22;9863;49.404;8.246;2022-10-16T00:14:21;15.60;99.90
19449;DHT22;9863;49.404;8.246;2022-10-16T00:17:09;15.50;99.90
19449;DHT22;9863;49.404;8.246;2022-10-16T00:19:57;15.50;99.90
19449;DHT22;9863;49.404;8.246;2022-10-16T00:22:45;15.50;99.90
19449;DHT22;9863;49.404;8.246;2022-10-16T00:25:33;15.50;99.90
19449;DHT22;9863;49.404;8.246;2022-10-16T00:28:22;15.50;99.90
19449;DHT22;9863;49.404;8.246;2022-10-16T00:31:12;15.40;99.90
19449;DHT22;9863;49.404;8.246;2022-10-16T00:34:00;15.40;99.90
19449;DHT22;9863;49.404;8.246;2022-10-16T00:36:48;15.40;99.90
19449;DHT22;9863;49.404;8.246;2022-10-16T00:39:37;15.40;99.90
19449;DHT22;9863;49.404;8.246;2022-10-16T00:42:25;15.40;99.90
19449;DHT22;9863;49.404;8.246;2022-10-16T00:45:14;15.50;99.90
19449;DHT22;9863;49.404;8.246;2022-10-16T00:48:03;15.40;99.90
19449;DHT22;9863;49.404;8.246;2022-10-16T00:50:51;15.50;99.90
19449;DHT22;9863;49.404;8.246;2022-10-16T00:53:40;15.50;99.90
19449;DHT22;9863;49.404;8.246;2022-10-16T00:56:28;15.50;99.90
19449;DHT22;9863;49.404;8.246;2022-10-16T00:59:24;15.50;99.90
19449;DHT22;9863;49.404;8.246;2022-10-16T01:02:16;15.50;99.90
19449;DHT22;9863;49.404;8.246;2022-10-16T01:05:05;15.50;99.90
19449;DHT22;9863;49.404;8.246;2022-10-16T01:11:36;15.40;99.90
19449;DHT22;9863;49.404;8.246;2022-10-16T01:14:48;15.40;99.90
19449;DHT22;9863;49.404;8.246;2022-10-16T01:17:49;15.50;99.90
19449;DHT22;9863;49.404;8.246;2022-10-16T01:21:10;15.40;99.90
19449;DHT22;9863;49.404;8.246;2022-10-16T01:24:21;15.60;99.90
19449;DHT22;9863;49.404;8.246;2022-10-16T01:30:25;15.30;99.90
19449;DHT22;9863;49.404;8.246;2022-10-16T01:33:22;15.30;99.90
19449;DHT22;9863;49.404;8.246;2022-10-16T01:36:21;15.30;99.90
19449;DHT22;9863;49.404;8.246;2022-10-16T01:39:13;15.30;99.90
19449;DHT22;9863;49.404;8.246;2022-10-16T01:42:08;15.20;99.90
19449;DHT22;9863;49.404;8.246;2022-10-16T01:45:07;15.20;99.90
19449;DHT22;9863;49.404;8.246;2022-10-16T01:48:00;15.20;99.90
19449;DHT22;9863;49.404;8.246;2022-10-16T01:51:07;15.20;99.90
19449;DHT22;9863;49.404;8.246;2022-10-16T01:53:59;15.20;99.90
19449;DHT22;9863;49.404;8.246;2022-10-16T01:56:49;15.30;99.90
19449;DHT22;9863;49.404;8.246;2022-10-16T01:59:43;15.30;99.90
19449;DHT22;9863;49.404;8.246;2022-10-16T02:02:33;15.20;99.90
19449;DHT22;9863;49.404;8.246;2022-10-16T02:05:30;15.20;99.90
19449;DHT22;9863;49.404;8.246;2022-10-16T02:08:23;15.30;99.90
19449;DHT22;9863;49.404;8.246;2022-10-16T02:11:12;15.20;99.90
19449;DHT22;9863;49.404;8.246;2022-10-16T02:14:05;15.20;99.90
19449;DHT22;9863;49.404;8.246;2022-10-16T02:16:54;15.20;99.90
19449;DHT22;9863;49.404;8.246;2022-10-16T02:19:43;15.20;99.90
19449;DHT22;9863;49.404;8.246;2022-10-16T02:22:34;15.20;99.90
19449;DHT22;9863;49.404;8.246;2022-10-16T02:25:31;15.20;99.90
19449;DHT22;9863;49.404;8.246;2022-10-16T02:28:26;15.20;99.90
19449;DHT22;9863;49.404;8.246;2022-10-16T02:31:23;15.20;99.90
19449;DHT22;9863;49.404;8.246;2022-10-16T02:34:15;15.20;99.90
19449;DHT22;9863;49.404;8.246;2022-10-16T02:37:05;15.10;99.90
19449;DHT22;9863;49.404;8.246;2022-10-16T02:39:56;15.10;99.90
19449;DHT22;9863;49.404;8.246;2022-10-16T02:42:53;15.10;99.90
19449;DHT22;9863;49.404;8.246;2022-10-16T02:45:42;15.10;99.90
19449;DHT22;9863;49.404;8.246;2022-10-16T02:48:30;15.00;99.90
19449;DHT22;9863;49.404;8.246;2022-10-16T02:51:18;15.10;99.90
19449;DHT22;9863;49.404;8.246;2022-10-16T02:54:06;15.10;99.90
19449;DHT22;9863;49.404;8.246;2022-10-16T02:56:55;15.10;99.90
19449;DHT22;9863;49.404;8.246;2022-10-16T02:59:43;15.10;99.90
19449;DHT22;9863;49.404;8.246;2022-10-16T03:02:31;15.10;99.90
19449;DHT22;9863;49.404;8.246;2022-10-16T03:05:20;15.10;99.90
19449;DHT22;9863;49.404;8.246;2022-10-16T03:08:09;15.10;99.90
19449;DHT22;9863;49.404;8.246;2022-10-16T03:10:57;15.00;99.90
19449;DHT22;9863;49.404;8.246;2022-10-16T03:13:48;15.00;99.90
19449;DHT22;9863;49.404;8.246;2022-10-16T03:16:36;15.00;99.90
19449;DHT22;9863;49.404;8.246;2022-10-16T03:19:24;15.00;99.90
19449;DHT22;9863;49.404;8.246;2022-10-16T03:22:12;15.00;99.90
19449;DHT22;9863;49.404;8.246;2022-10-16T03:25:00;15.00;99.90
19449;DHT22;9863;49.404;8.246;2022-10-16T03:27:49;14.90;99.90
19449;DHT22;9863;49.404;8.246;2022-10-16T03:30:37;15.00;99.90
19449;DHT22;9863;49.404;8.246;2022-10-16T03:33:27;15.00;99.90
19449;DHT22;9863;49.404;8.246;2022-10-16T03:36:15;15.00;99.90
19449;DHT22;9863;49.404;8.246;2022-10-16T03:39:03;14.90;99.90
19449;DHT22;9863;49.404;8.246;2022-10-16T03:41:51;14.90;99.90
19449;DHT22;9863;49.404;8.246;2022-10-16T03:44:40;14.80;99.90
19449;DHT22;9863;49.404;8.246;2022-10-16T03:47:28;14.80;99.90
19449;DHT22;9863;49.404;8.246;2022-10-16T03:50:16;14.80;99.90
19449;DHT22;9863;49.404;8.246;2022-10-16T03:53:05;14.80;99.90
19449;DHT22;9863;49.404;8.246;2022-10-16T03:55:53;14.80;99.90
19449;DHT22;9863;49.404;8.246;2022-10-16T03:58:41;14.90;99.90
19449;DHT22;9863;49.404;8.246;2022-10-16T04:01:30;14.90;99.90
19449;DHT22;9863;49.404;8.246;2022-10-16T04:04:18;14.90;99.90
19449;DHT22;9863;49.404;8.246;2022-10-16T04:07:06;14.90;99.90
19449;DHT22;9863;49.404;8.246;2022-10-16T04:09:54;14.80;99.90
19449;DHT22;9863;49.404;8.246;2022-10-16T04:12:43;14.80;99.90
19449;DHT22;9863;49.404;8.246;2022-10-16T04:15:31;14.90;99.90
19449;DHT22;9863;49.404;8.246;2022-10-16T04:18:19;14.90;99.90
19449;DHT22;9863;49.404;8.246;2022-10-16T04:21:07;14.80;99.90
19449;DHT22;9863;49.404;8.246;2022-10-16T04:23:55;14.80;99.90
19449;DHT22;9863;49.404;8.246;2022-10-16T04:26:44;14.80;99.90
19449;DHT22;9863;49.404;8.246;2022-10-16T04:29:32;14.70;99.90
19449;DHT22;9863;49.404;8.246;2022-10-16T04:32:20;14.70;99.90
19449;DHT22;9863;49.404;8.246;2022-10-16T04:35:08;14.70;99.90
19449;DHT22;9863;49.404;8.246;2022-10-16T04:37:58;14.80;99.90
19449;DHT22;9863;49.404;8.246;2022-10-16T04:40:46;14.80;99.90
19449;DHT22;9863;49.404;8.246;2022-10-16T04:43:34;14.80;99.90
19449;DHT22;9863;49.404;8.246;2022-10-16T04:46:22;14.80;99.90
19449;DHT22;9863;49.404;8.246;2022-10-16T04:49:10;14.70;99.90
19449;DHT22;9863;49.404;8.246;2022-10-16T04:51:59;14.70;99.90
19449;DHT22;9863;49.404;8.246;2022-10-16T04:54:47;14.70;99.90
19449;DHT22;9863;49.404;8.246;2022-10-16T04:57:35;14.70;99.90
19449;DHT22;9863;49.404;8.246;2022-10-16T05:00:23;14.70;99.90
19449;DHT22;9863;49.404;8.246;2022-10-16T05:03:12;14.70;99.90
19449;DHT22;9863;49.404;8.246;2022-10-16T05:06:01;14.60;99.90
19449;DHT22;9863;49.404;8.246;2022-10-16T05:08:49;14.60;99.90
19449;DHT22;9863;49.404;8.246;2022-10-16T05:11:37;14.60;99.90
19449;DHT22;9863;49.404;8.246;2022-10-16T05:14:25;14.50;99.90
19449;DHT22;9863;49.404;8.246;2022-10-16T05:17:14;14.50;99.90
19449;DHT22;9863;49.404;8.246;2022-10-16T05:20:02;14.60;99.90
19449;DHT22;9863;49.404;8.246;2022-10-16T05:22:51;14.60;99.90
19449;DHT22;9863;49.404;8.246;2022-10-16T05:25:39;14.50;99.90
19449;DHT22;9863;49.404;8.246;2022-10-16T05:28:28;14.60;99.90
19449;DHT22;9863;49.404;8.246;2022-10-16T05:31:18;14.60;99.90
19449;DHT22;9863;49.404;8.246;2022-10-16T05:34:07;14.60;99.90
19449;DHT22;9863;49.404;8.246;2022-10-16T05:36:55;14.50;99.90
19449;DHT22;9863;49.404;8.246;2022-10-16T05:39:45;14.60;99.90
19449;DHT22;9863;49.404;8.246;2022-10-16T05:42:33;14.60;99.90
19449;DHT22;9863;49.404;8.246;2022-10-16T05:45:21;14.60;99.90
19449;DHT22;9863;49.404;8.246;2022-10-16T05:48:09;14.60;99.90
19449;DHT22;9863;49.404;8.246;2022-10-16T05:50:58;14.60;99.90
19449;DHT22;9863;49.404;8.246;2022-10-16T05:53:52;14.60;99.90
19449;DHT22;9863;49.404;8.246;2022-10-16T05:56:40;14.60;99.90
19449;DHT22;9863;49.404;8.246;2022-10-16T05:59:28;14.60;99.90
19449;DHT22;9863;49.404;8.246;2022-10-16T06:02:16;14.50;99.90
19449;DHT22;9863;49.404;8.246;2022-10-16T06:05:05;14.60;99.90
19449;DHT22;9863;49.404;8.246;2022-10-16T06:07:53;14.60;99.90
19449;DHT22;9863;49.404;8.246;2022-10-16T06:10:42;14.50;99.90
19449;DHT22;9863;49.404;8.246;2022-10-16T06:13:31;14.50;99.90
19449;DHT22;9863;49.404;8.246;2022-10-16T06:16:19;14.50;99.90
19449;DHT22;9863;49.404;8.246;2022-10-16T06:19:08;14.50;99.90
19449;DHT22;9863;49.404;8.246;2022-10-16T06:21:57;14.50;99.90
19449;DHT22;9863;49.404;8.246;2022-10-16T06:24:46;14.60;99.90
19449;DHT22;9863;49.404;8.246;2022-10-16T06:27:35;14.60;99.90
19449;DHT22;9863;49.404;8.246;2022-10-16T06:30:23;14.60;99.90
19449;DHT22;9863;49.404;8.246;2022-10-16T06:33:11;14.60;99.90
19449;DHT22;9863;49.404;8.246;2022-10-16T06:36:05;14.60;99.90
19449;DHT22;9863;49.404;8.246;2022-10-16T06:38:58;14.70;99.90
19449;DHT22;9863;49.404;8.246;2022-10-16T06:41:46;14.70;99.90
19449;DHT22;9863;49.404;8.246;2022-10-16T06:44:37;14.70;99.90
19449;DHT22;9863;49.404;8.246;2022-10-16T06:47:25;14.70;99.90
19449;DHT22;9863;49.404;8.246;2022-10-16T06:50:13;14.70;99.90
19449;DHT22;9863;49.404;8.246;2022-10-16T06:53:02;14.80;99.90
19449;DHT22;9863;49.404;8.246;2022-10-16T06:55:50;14.80;99.90
19449;DHT22;9863;49.404;8.246;2022-10-16T06:58:39;14.80;99.90
19449;DHT22;9863;49.404;8.246;2022-10-16T07:01:28;14.80;99.90
19449;DHT22;9863;49.404;8.246;2022-10-16T07:04:16;14.90;99.90
19449;DHT22;9863;49.404;8.246;2022-10-16T07:07:05;14.90;99.90
19449;DHT22;9863;49.404;8.246;2022-10-16T07:09:56;14.90;99.90
19449;DHT22;9863;49.404;8.246;2022-10-16T07:12:44;15.00;99.90
19449;DHT22;9863;49.404;8.246;2022-10-16T07:15:33;15.00;99.90
19449;DHT22;9863;49.404;8.246;2022-10-16T07:18:21;15.10;99.90
19449;DHT22;9863;49.404;8.246;2022-10-16T07:21:16;15.20;99.90
19449;DHT22;9863;49.404;8.246;2022-10-16T07:24:12;15.20;99.90
19449;DHT22;9863;49.404;8.246;2022-10-16T07:27:04;15.20;99.90
19449;DHT22;9863;49.404;8.246;2022-10-16T07:29:52;15.20;99.90
19449;DHT22;9863;49.404;8.246;2022-10-16T07:32:40;15.30;99.90
19449;DHT22;9863;49.404;8.246;2022-10-16T07:35:28;15.30;99.90
19449;DHT22;9863;49.404;8.246;2022-10-16T07:38:16;15.40;99.90
19449;DHT22;9863;49.404;8.246;2022-10-16T07:41:07;15.40;99.90
19449;DHT22;9863;49.404;8.246;2022-10-16T07:43:56;15.40;99.90
19449;DHT22;9863;49.404;8.246;2022-10-16T07:46:48;15.40;99.90
19449;DHT22;9863;49.404;8.246;2022-10-16T07:49:36;15.50;99.90
19449;DHT22;9863;49.404;8.246;2022-10-16T07:52:24;15.60;99.90
19449;DHT22;9863;49.404;8.246;2022-10-16T07:55:12;15.60;99.90
19449;DHT22;9863;49.404;8.246;2022-10-16T07:58:01;15.70;99.90
19449;DHT22;9863;49.404;8.246;2022-10-16T08:00:49;15.70;99.90
19449;DHT22;9863;49.404;8.246;2022-10-16T08:03:37;15.70;99.90
19449;DHT22;9863;49.404;8.246;2022-10-16T08:06:25;15.70;99.90
19449;DHT22;9863;49.404;8.246;2022-10-16T08:09:14;15.70;99.90
19449;DHT22;9863;49.404;8.246;2022-10-16T08:12:03;15.70;99.90
19449;DHT22;9863;49.404;8.246;2022-10-16T08:14:52;15.50;99.90
19449;DHT22;9863;49.404;8.246;2022-10-16T08:17:40;15.70;99.90
19449;DHT22;9863;49.404;8.246;2022-10-16T08:20:29;15.80;99.90
19449;DHT22;9863;49.404;8.246;2022-10-16T08:23:18;15.80;99.90
19449;DHT22;9863;49.404;8.246;2022-10-16T08:26:07;15.90;99.90
19449;DHT22;9863;49.404;8.246;2022-10-16T08:28:56;15.90;99.90
19449;DHT22;9863;49.404;8.246;2022-10-16T08:31:44;16.00;99.90
19449;DHT22;9863;49.404;8.246;2022-10-16T08:34:33;16.00;99.90
19449;DHT22;9863;49.404;8.246;2022-10-16T08:37:21;16.10;99.90
19449;DHT22;9863;49.404;8.246;2022-10-16T08:40:30;16.10;99.90
19449;DHT22;9863;49.404;8.246;2022-10-16T08:46:15;16.00;99.90
19449;DHT22;9863;49.404;8.246;2022-10-16T08:49:15;16.00;99.90
19449;DHT22;9863;49.404;8.246;2022-10-16T08:52:04;16.20;99.90
19449;DHT22;9863;49.404;8.246;2022-10-16T08:54:54;16.30;99.90
19449;DHT22;9863;49.404;8.246;2022-10-16T08:57:43;16.50;99.90
19449;DHT22;9863;49.404;8.246;2022-10-16T09:00:32;16.80;99.90
19449;DHT22;9863;49.404;8.246;2022-10-16T09:10:15;17.20;99.90
19449;DHT22;9863;49.404;8.246;2022-10-16T09:13:46;17.40;99.90
19449;DHT22;9863;49.404;8.246;2022-10-16T09:16:48;17.40;99.90
19449;DHT22;9863;49.404;8.246;2022-10-16T09:20:24;17.30;99.90
19449;DHT22;9863;49.404;8.246;2022-10-16T09:23:15;17.40;99.90
19449;DHT22;9863;49.404;8.246;2022-10-16T09:28:59;17.80;99.90
19449;DHT22;9863;49.404;8.246;2022-10-16T09:31:48;17.90;99.90
19449;DHT22;9863;49.404;8.246;2022-10-16T09:34:42;18.80;99.90
19449;DHT22;9863;49.404;8.246;2022-10-16T09:37:32;17.90;99.90
19449;DHT22;9863;49.404;8.246;2022-10-16T09:40:32;17.80;99.90
19449;DHT22;9863;49.404;8.246;2022-10-16T09:46:31;17.90;99.90
19449;DHT22;9863;49.404;8.246;2022-10-16T09:49:24;17.90;99.90
19449;DHT22;9863;49.404;8.246;2022-10-16T09:52:14;18.10;99.90
19449;DHT22;9863;49.404;8.246;2022-10-16T09:55:14;18.20;99.90
19449;DHT22;9863;49.404;8.246;2022-10-16T09:58:13;18.20;99.90
19449;DHT22;9863;49.404;8.246;2022-10-16T10:01:01;18.30;99.90
19449;DHT22;9863;49.404;8.246;2022-10-16T10:03:50;18.30;99.90
19449;DHT22;9863;49.404;8.246;2022-10-16T10:09:44;18.20;99.90
19449;DHT22;9863;49.404;8.246;2022-10-16T10:12:33;18.30;99.90
19449;DHT22;9863;49.404;8.246;2022-10-16T10:15:24;18.40;99.90
19449;DHT22;9863;49.404;8.246;2022-10-16T10:18:17;18.40;99.90
19449;DHT22;9863;49.404;8.246;2022-10-16T10:21:14;18.50;99.90
19449;DHT22;9863;49.404;8.246;2022-10-16T10:24:03;18.60;99.90
19449;DHT22;9863;49.404;8.246;2022-10-16T10:27:14;18.70;99.90
19449;DHT22;9863;49.404;8.246;2022-10-16T10:37:26;18.90;99.90
19449;DHT22;9863;49.404;8.246;2022-10-16T10:46:44;19.50;99.90
19449;DHT22;9863;49.404;8.246;2022-10-16T11:05:50;20.90;99.90
19449;DHT22;9863;49.404;8.246;2022-10-16T11:09:08;21.10;99.90
19449;DHT22;9863;49.404;8.246;2022-10-16T11:12:21;21.20;99.90
19449;DHT22;9863;49.404;8.246;2022-10-16T11:15:29;21.40;99.90
19449;DHT22;9863;49.404;8.246;2022-10-16T11:18:30;21.40;99.90
19449;DHT22;9863;49.404;8.246;2022-10-16T11:21:49;21.80;99.90
19449;DHT22;9863;49.404;8.246;2022-10-16T11:28:23;21.90;99.90
19449;DHT22;9863;49.404;8.246;2022-10-16T11:34:22;22.40;99.90
19449;DHT22;9863;49.404;8.246;2022-10-16T11:37:33;22.10;99.90
19449;DHT22;9863;49.404;8.246;2022-10-16T11:40:29;22.20;99.90
19449;DHT22;9863;49.404;8.246;2022-10-16T11:43:45;22.70;99.90
19449;DHT22;9863;49.404;8.246;2022-10-16T11:46:42;23.20;99.90
19449;DHT22;9863;49.404;8.246;2022-10-16T11:49:53;22.50;99.90
19449;DHT22;9863;49.404;8.246;2022-10-16T12:02:14;22.00;99.90
19449;DHT22;9863;49.404;8.246;2022-10-16T12:05:29;22.10;99.90
19449;DHT22;9863;49.404;8.246;2022-10-16T12:23:05;22.00;99.90
19449;DHT22;9863;49.404;8.246;2022-10-16T12:25:56;21.70;99.90
19449;DHT22;9863;49.404;8.246;2022-10-16T12:31:43;21.90;99.90
19449;DHT22;9863;49.404;8.246;2022-10-16T12:37:34;22.30;99.90
19449;DHT22;9863;49.404;8.246;2022-10-16T12:40:30;22.30;99.90
19449;DHT22;9863;49.404;8.246;2022-10-16T12:54:49;21.40;99.90
19449;DHT22;9863;49.404;8.246;2022-10-16T13:08:06;21.10;99.90
19449;DHT22;9863;49.404;8.246;2022-10-16T13:27:49;21.20;99.90
19449;DHT22;9863;49.404;8.246;2022-10-16T13:30:54;21.20;99.90
19449;DHT22;9863;49.404;8.246;2022-10-16T13:33:48;21.40;99.90
19449;DHT22;9863;49.404;8.246;2022-10-16T13:36:46;21.10;99.90
19449;DHT22;9863;49.404;8.246;2022-10-16T13:42:28;20.80;99.90
19449;DHT22;9863;49.404;8.246;2022-10-16T13:45:21;20.70;99.90
19449;DHT22;9863;49.404;8.246;2022-10-16T14:08:23;20.70;99.90
19449;DHT22;9863;49.404;8.246;2022-10-16T14:16:51;20.20;99.90
19449;DHT22;9863;49.404;8.246;2022-10-16T14:22:40;20.20;99.90
19449;DHT22;9863;49.404;8.246;2022-10-16T14:25:31;20.10;99.90
19449;DHT22;9863;49.404;8.246;2022-10-16T14:28:23;19.90;99.90
19449;DHT22;9863;49.404;8.246;2022-10-16T14:31:31;19.60;99.90
19449;DHT22;9863;49.404;8.246;2022-10-16T14:34:29;19.80;99.90
19449;DHT22;9863;49.404;8.246;2022-10-16T14:43:20;19.90;99.90
19449;DHT22;9863;49.404;8.246;2022-10-16T14:49:17;19.90;99.90
19449;DHT22;9863;49.404;8.246;2022-10-16T14:52:14;19.90;99.90
19449;DHT22;9863;49.404;8.246;2022-10-16T15:20:31;20.20;99.90
19449;DHT22;9863;49.404;8.246;2022-10-16T15:46:03;20.20;99.90
19449;DHT22;9863;49.404;8.246;2022-10-16T15:48:57;20.10;99.90
19449;DHT22;9863;49.404;8.246;2022-10-16T16:00:17;20.30;99.90
19449;DHT22;9863;49.404;8.246;2022-10-16T16:08:45;20.30;99.90
19449;DHT22;9863;49.404;8.246;2022-10-16T16:14:27;20.10;99.90
19449;DHT22;9863;49.404;8.246;2022-10-16T16:17:15;19.90;99.90
19449;DHT22;9863;49.404;8.246;2022-10-16T16:20:04;20.80;99.90
19449;DHT22;9863;49.404;8.246;2022-10-16T16:51:09;18.40;99.90
19449;DHT22;9863;49.404;8.246;2022-10-16T16:56:51;18.20;99.90
19449;DHT22;9863;49.404;8.246;2022-10-16T17:02:28;18.10;99.90
19449;DHT22;9863;49.404;8.246;2022-10-16T17:05:17;18.00;99.90
19449;DHT22;9863;49.404;8.246;2022-10-16T17:08:07;18.00;99.90
19449;DHT22;9863;49.404;8.246;2022-10-16T17:10:57;17.80;99.90
19449;DHT22;9863;49.404;8.246;2022-10-16T17:13:46;17.70;99.90
19449;DHT22;9863;49.404;8.246;2022-10-16T17:16:39;17.30;99.90
19449;DHT22;9863;49.404;8.246;2022-10-16T17:19:31;17.20;99.90
19449;DHT22;9863;49.404;8.246;2022-10-16T17:39:13;16.50;99.90
19449;DHT22;9863;49.404;8.246;2022-10-16T17:47:39;16.20;99.90
19449;DHT22;9863;49.404;8.246;2022-10-16T17:56:11;15.90;99.90
19449;DHT22;9863;49.404;8.246;2022-10-16T17:59:01;16.00;99.90
19449;DHT22;9863;49.404;8.246;2022-10-16T18:16:02;15.80;99.90
19449;DHT22;9863;49.404;8.246;2022-10-16T18:18:53;15.80;99.90
19449;DHT22;9863;49.404;8.246;2022-10-16T18:30:10;15.50;99.90
19449;DHT22;9863;49.404;8.246;2022-10-16T18:38:39;15.40;99.90
19449;DHT22;9863;49.404;8.246;2022-10-16T18:41:44;15.50;99.90
19449;DHT22;9863;49.404;8.246;2022-10-16T19:13:03;15.00;99.90
19449;DHT22;9863;49.404;8.246;2022-10-16T19:19:09;14.70;99.90
19449;DHT22;9863;49.404;8.246;2022-10-16T19:30:54;14.70;99.90
19449;DHT22;9863;49.404;8.246;2022-10-16T19:33:42;14.60;99.90
19449;DHT22;9863;49.404;8.246;2022-10-16T19:36:33;14.70;99.90
19449;DHT22;9863;49.404;8.246;2022-10-16T19:39:22;14.80;99.90
19449;DHT22;9863;49.404;8.246;2022-10-16T19:42:11;14.80;99.90
19449;DHT22;9863;49.404;8.246;2022-10-16T19:45:00;14.80;99.90
19449;DHT22;9863;49.404;8.246;2022-10-16T19:47:48;14.70;99.90
19449;DHT22;9863;49.404;8.246;2022-10-16T19:53:32;14.60;99.90
19449;DHT22;9863;49.404;8.246;2022-10-16T19:59:11;14.30;99.90
19449;DHT22;9863;49.404;8.246;2022-10-16T20:02:00;14.40;99.90
19449;DHT22;9863;49.404;8.246;2022-10-16T20:07:37;14.30;99.90
19449;DHT22;9863;49.404;8.246;2022-10-16T20:10:25;14.40;99.90
19449;DHT22;9863;49.404;8.246;2022-10-16T20:13:13;14.40;99.90
19449;DHT22;9863;49.404;8.246;2022-10-16T20:16:03;14.20;99.90
19449;DHT22;9863;49.404;8.246;2022-10-16T20:18:53;14.10;99.90
19449;DHT22;9863;49.404;8.246;2022-10-16T20:21:42;14.20;99.90
19449;DHT22;9863;49.404;8.246;2022-10-16T20:24:30;14.10;99.90
19449;DHT22;9863;49.404;8.246;2022-10-16T20:27:18;14.00;99.90
19449;DHT22;9863;49.404;8.246;2022-10-16T20:30:07;14.00;99.90
19449;DHT22;9863;49.404;8.246;2022-10-16T20:35:46;14.10;99.90
19449;DHT22;9863;49.404;8.246;2022-10-16T20:49:51;13.60;99.90
19449;DHT22;9863;49.404;8.246;2022-10-16T21:01:14;12.20;99.90
19449;DHT22;9863;49.404;8.246;2022-10-16T21:04:06;14.80;99.90
19449;DHT22;9863;49.404;8.246;2022-10-16T21:18:08;13.30;99.90
19449;DHT22;9863;49.404;8.246;2022-10-16T21:26:35;13.10;99.90
19449;DHT22;9863;49.404;8.246;2022-10-16T21:29:23;13.10;99.90
19449;DHT22;9863;49.404;8.246;2022-10-16T21:32:11;13.00;99.90
19449;DHT22;9863;49.404;8.246;2022-10-16T21:34:59;13.00;99.90
19449;DHT22;9863;49.404;8.246;2022-10-16T21:37:48;13.10;99.90
19449;DHT22;9863;49.404;8.246;2022-10-16T21:40:36;13.20;99.90
19449;DHT22;9863;49.404;8.246;2022-10-16T21:43:25;13.20;99.90
19449;DHT22;9863;49.404;8.246;2022-10-16T21:46:16;13.30;99.90
19449;DHT22;9863;49.404;8.246;2022-10-16T21:49:11;13.30;99.90
19449;DHT22;9863;49.404;8.246;2022-10-16T21:52:01;13.30;99.90
19449;DHT22;9863;49.404;8.246;2022-10-16T21:54:49;13.40;99.90
19449;DHT22;9863;49.404;8.246;2022-10-16T21:57:37;13.30;99.90
19449;DHT22;9863;49.404;8.246;2022-10-16T22:00:25;13.30;99.90
19449;DHT22;9863;49.404;8.246;2022-10-16T22:03:14;13.30;99.90
19449;DHT22;9863;49.404;8.246;2022-10-16T22:06:04;13.30;99.90
19449;DHT22;9863;49.404;8.246;2022-10-16T22:08:56;13.50;99.90
19449;DHT22;9863;49.404;8.246;2022-10-16T22:14:38;13.30;99.90
19449;DHT22;9863;49.404;8.246;2022-10-16T22:17:28;13.30;99.90
19449;DHT22;9863;49.404;8.246;2022-10-16T22:20:16;13.30;99.90
19449;DHT22;9863;49.404;8.246;2022-10-16T22:23:05;13.30;99.90
19449;DHT22;9863;49.404;8.246;2022-10-16T22:26:01;13.10;99.90
19449;DHT22;9863;49.404;8.246;2022-10-16T22:28:51;13.10;99.90
19449;DHT22;9863;49.404;8.246;2022-10-16T22:31:39;13.00;99.90
19449;DHT22;9863;49.404;8.246;2022-10-16T22:40:04;13.30;99.90
19449;DHT22;9863;49.404;8.246;2022-10-16T22:42:53;13.40;99.90
19449;DHT22;9863;49.404;8.246;2022-10-16T22:56:55;13.10;99.90
19449;DHT22;9863;49.404;8.246;2022-10-16T23:02:33;13.10;99.90
19449;DHT22;9863;49.404;8.246;2022-10-16T23:05:21;11.10;99.90
19449;DHT22;9863;49.404;8.246;2022-10-16T23:08:12;13.00;99.90
19449;DHT22;9863;49.404;8.246;2022-10-16T23:11:07;13.00;99.90
19449;DHT22;9863;49.404;8.246;2022-10-16T23:33:38;13.10;99.90
